Time;durP1;ratioP1;P1;durP2;ratioP2;P2;SDS_P1;SDS_P2;PMS_P1;PMS_P2;Temp;Humidity;BMP_temperature;BMP_pressure;BME280_temperature;BME280_humidity;BME280_pressure;Samples;Min_cycle;Max_cycle;Signal;HPM_P1;HPM_P2
2022/03/29 00:00:30;;;;;;;21.30;9.70;;;;;;;4.80;90.91;99113.79;104623;1273;59727;-70
2022/03/29 00:03:19;;;;;;;25.10;10.40;;;;;;;4.80;91.08;99114.32;104827;1272;73426;-70
2022/03/29 00:06:11;;;;;;;27.50;11.60;;;;;;;4.82;91.24;99111.23;104858;1271;68533;-69
2022/03/29 00:09:00;;;;;;;26.80;11.60;;;;;;;4.84;90.96;99105.79;104982;1273;73459;-70
2022/03/29 00:11:49;;;;;;;23.30;11.90;;;;;;;4.85;90.77;99103.76;105026;1271;59649;-70
2022/03/29 00:14:38;;;;;;;24.40;11.10;;;;;;;4.89;90.66;99103.02;104793;1271;59541;-69
2022/03/29 00:17:26;;;;;;;25.90;12.20;;;;;;;4.91;90.35;99098.81;105205;1272;72201;-69
2022/03/29 00:20:20;;;;;;;20.90;10.50;;;;;;;4.91;90.42;99096.15;105022;1274;68777;-69
2022/03/29 00:23:09;;;;;;;22.70;11.30;;;;;;;4.91;90.42;99093.53;104899;1273;73073;-69
2022/03/29 00:25:57;;;;;;;23.70;10.30;;;;;;;4.91;89.97;99095.77;104901;1272;59664;-69
2022/03/29 00:28:47;;;;;;;20.60;9.80;;;;;;;4.91;90.06;99086.34;104936;1271;59608;-70
2022/03/29 00:31:36;;;;;;;22.50;10.60;;;;;;;4.89;89.89;99085.77;105060;1272;73105;-69
2022/03/29 00:34:24;;;;;;;24.00;10.70;;;;;;;4.85;90.08;99077.75;104869;1272;67096;-70
2022/03/29 00:37:13;;;;;;;21.50;9.80;;;;;;;4.81;89.98;99077.15;105105;1272;71935;-71
2022/03/29 00:40:07;;;;;;;24.60;9.90;;;;;;;4.81;90.02;99079.82;104877;1271;59756;-71
2022/03/29 00:42:56;;;;;;;23.90;10.50;;;;;;;4.77;90.37;99084.83;104934;1273;59575;-70
2022/03/29 00:45:45;;;;;;;23.60;11.30;;;;;;;4.76;90.36;99083.86;104788;1274;72346;-71
2022/03/29 00:48:34;;;;;;;23.70;9.90;;;;;;;4.74;90.13;99084.98;103497;1271;1003177;-71
2022/03/29 00:51:23;;;;;;;24.50;10.80;;;;;;;4.73;90.40;99081.95;104802;1271;71644;-70
2022/03/29 00:54:13;;;;;;;25.70;9.60;;;;;;;4.69;90.60;99074.17;105013;1271;59710;-71
2022/03/29 00:57:03;;;;;;;25.60;11.00;;;;;;;4.63;90.77;99076.65;105165;1271;60410;-70
2022/03/29 00:59:58;;;;;;;26.50;11.10;;;;;;;4.59;90.95;99069.15;104833;1271;73513;-70
2022/03/29 01:02:47;;;;;;;27.10;11.70;;;;;;;4.56;91.19;99069.07;104140;1271;1003281;-70
2022/03/29 01:05:36;;;;;;;26.40;11.20;;;;;;;4.51;91.28;99068.65;104798;1271;73387;-70
2022/03/29 01:08:25;;;;;;;25.80;11.90;;;;;;;4.45;91.42;99065.04;104819;1271;59895;-71
2022/03/29 01:11:15;;;;;;;22.80;10.80;;;;;;;4.38;91.58;99066.20;105224;1272;60897;-70
2022/03/29 01:14:07;;;;;;;31.20;12.10;;;;;;;4.29;92.12;99061.95;104931;1274;73346;-70
2022/03/29 01:20:11;;;;;;;27.50;11.70;;;;;;;4.13;92.32;99049.48;104944;1273;72930;-70
2022/03/29 01:23:02;;;;;;;25.20;9.80;;;;;;;4.07;92.57;99049.70;104965;1271;59684;-70
2022/03/29 01:25:52;;;;;;;31.80;11.60;;;;;;;3.99;93.04;99046.35;105063;1272;60915;-70
2022/03/29 01:28:42;;;;;;;25.50;11.40;;;;;;;3.93;93.33;99043.25;104835;1272;73574;-71
2022/03/29 01:31:37;;;;;;;25.20;12.40;;;;;;;3.88;93.22;99041.13;105167;1272;68333;-70
2022/03/29 01:34:28;;;;;;;29.40;12.30;;;;;;;3.82;93.87;99042.40;104975;1271;72988;-70
2022/03/29 01:37:17;;;;;;;25.40;11.00;;;;;;;3.78;94.00;99042.99;104847;1271;59703;-69
2022/03/29 01:40:15;;;;;;;27.70;9.80;;;;;;;3.75;94.02;99047.74;104901;1271;59728;-69
2022/03/29 01:43:04;;;;;;;22.00;10.10;;;;;;;3.72;94.75;99044.82;104917;1272;71806;-69
2022/03/29 01:45:52;;;;;;;25.80;9.70;;;;;;;3.71;94.49;99046.93;104877;1271;67029;-70
2022/03/29 01:48:41;;;;;;;20.90;9.90;;;;;;;3.71;94.60;99051.37;104761;1271;72722;-69
2022/03/29 01:51:31;;;;;;;25.70;11.10;;;;;;;3.71;95.11;99045.04;105127;1272;59655;-69
2022/03/29 01:54:19;;;;;;;27.90;11.60;;;;;;;3.74;94.92;99046.09;105474;1271;59600;-69
2022/03/29 01:57:08;;;;;;;30.10;10.60;;;;;;;3.80;94.76;99049.70;105029;1271;73532;-69
2022/03/29 02:03:06;;;;;;;26.90;11.70;;;;;;;3.96;94.16;99049.91;104974;1271;71053;-70
2022/03/29 02:05:55;;;;;;;28.40;10.60;;;;;;;4.01;93.79;99049.76;104938;1271;59677;-70
2022/03/29 02:08:45;;;;;;;27.80;10.90;;;;;;;4.05;93.69;99047.21;104887;1271;60661;-71
2022/03/29 02:11:38;;;;;;;22.10;10.30;;;;;;;4.06;93.48;99046.02;101472;1272;1003933;-70
2022/03/29 02:14:26;;;;;;;21.60;9.90;;;;;;;4.08;93.33;99048.39;105211;1271;67150;-70
2022/03/29 02:17:15;;;;;;;26.70;11.70;;;;;;;4.11;93.22;99043.84;104681;1272;71586;-71
2022/03/29 02:20:06;;;;;;;29.80;11.20;;;;;;;4.12;92.94;99038.98;104831;1271;59683;-70
2022/03/29 02:22:55;;;;;;;23.00;10.60;;;;;;;4.14;92.44;99041.84;104933;1271;61322;-69
2022/03/29 02:25:46;;;;;;;25.60;10.60;;;;;;;4.16;92.49;99045.44;105171;1271;71879;-69
2022/03/29 02:28:35;;;;;;;28.40;10.60;;;;;;;4.16;92.24;99043.99;105051;1272;68408;-69
2022/03/29 02:31:24;;;;;;;19.30;8.30;;;;;;;4.16;92.10;99048.90;105029;1271;73038;-69
2022/03/29 02:34:13;;;;;;;25.50;10.30;;;;;;;4.15;91.96;99049.84;104801;1271;59717;-69
2022/03/29 02:37:02;;;;;;;29.00;11.50;;;;;;;4.15;91.69;99050.38;104955;1271;59605;-69
2022/03/29 02:39:50;;;;;;;28.10;10.50;;;;;;;4.15;91.45;99054.44;104872;1271;72195;-69
2022/03/29 02:42:48;;;;;;;25.20;10.40;;;;;;;4.13;91.20;99058.82;104917;1271;67881;-69
2022/03/29 02:45:37;;;;;;;24.70;10.10;;;;;;;4.07;91.26;99054.21;105279;1271;72986;-69
2022/03/29 02:48:26;;;;;;;26.30;10.20;;;;;;;4.01;91.20;99052.73;104835;1271;59680;-69
2022/03/29 02:51:17;;;;;;;23.00;8.60;;;;;;;3.94;91.53;99059.16;104768;1271;60590;-69
2022/03/29 02:54:06;;;;;;;28.20;10.50;;;;;;;3.87;91.49;99058.00;104853;1271;73462;-69
2022/03/29 02:56:55;;;;;;;23.50;9.00;;;;;;;3.82;91.40;99057.31;104825;1271;67589;-70
2022/03/29 02:59:45;;;;;;;21.10;9.90;;;;;;;3.74;91.75;99060.61;105035;1271;73133;-70
2022/03/29 03:02:34;;;;;;;27.90;11.20;;;;;;;3.68;91.69;99060.48;104993;1272;59707;-70
2022/03/29 03:05:26;;;;;;;27.20;11.10;;;;;;;3.64;91.58;99063.90;104863;1271;59909;-69
2022/03/29 03:08:15;;;;;;;25.70;9.90;;;;;;;3.60;91.68;99059.78;105095;1271;72555;-69
2022/03/29 03:11:04;;;;;;;21.30;9.30;;;;;;;3.56;91.57;99062.29;104803;1271;67902;-69
2022/03/29 03:13:56;;;;;;;27.10;10.00;;;;;;;3.52;91.74;99063.61;104857;1272;73191;-69
2022/03/29 03:16:44;;;;;;;25.00;10.20;;;;;;;3.49;91.70;99064.17;104737;1274;59837;-69
2022/03/29 03:19:52;;;;;;;25.00;9.40;;;;;;;3.49;91.98;99064.37;104949;1273;60421;-69
2022/03/29 03:22:42;;;;;;;28.90;11.10;;;;;;;3.48;92.14;99062.00;104872;1272;73507;-69
2022/03/29 03:25:31;;;;;;;28.40;11.40;;;;;;;3.49;92.22;99065.04;104952;1271;68358;-69
2022/03/29 03:28:19;;;;;;;23.90;10.30;;;;;;;3.52;91.99;99070.48;104983;1271;71877;-68
2022/03/29 03:31:07;;;;;;;24.80;10.30;;;;;;;3.53;91.79;99069.85;104891;1271;59663;-68
2022/03/29 03:33:56;;;;;;;23.10;9.30;;;;;;;3.53;91.71;99072.50;105075;1271;60636;-68
2022/03/29 03:36:45;;;;;;;26.80;9.00;;;;;;;3.53;91.47;99076.85;104842;1271;72337;-69
2022/03/29 03:39:37;;;;;;;23.50;9.60;;;;;;;3.52;91.17;99073.81;105045;1271;68145;-69
2022/03/29 03:42:25;;;;;;;25.70;10.30;;;;;;;3.47;91.20;99071.35;105053;1271;70366;-68
2022/03/29 03:45:16;;;;;;;22.20;9.30;;;;;;;3.41;91.12;99069.79;104825;1271;59778;-68
2022/03/29 03:48:05;;;;;;;28.90;11.10;;;;;;;3.33;90.98;99070.45;104825;1271;59832;-68
2022/03/29 03:50:54;;;;;;;29.50;10.90;;;;;;;3.29;91.18;99077.59;105016;1271;73668;-69
2022/03/29 03:53:44;;;;;;;29.20;10.40;;;;;;;3.23;91.40;99082.28;105294;1271;68121;-68
2022/03/29 03:56:32;;;;;;;26.50;10.60;;;;;;;3.18;91.46;99083.11;104760;1271;71930;-70
2022/03/29 03:59:21;;;;;;;22.40;10.10;;;;;;;3.13;91.58;99084.48;104826;1274;59705;-68
2022/03/29 04:02:10;;;;;;;23.80;10.10;;;;;;;3.06;91.83;99080.02;104977;1271;60598;-69
2022/03/29 04:04:58;;;;;;;24.70;9.80;;;;;;;2.99;91.92;99080.95;104833;1271;71320;-69
2022/03/29 04:07:46;;;;;;;24.80;10.20;;;;;;;2.91;92.10;99081.98;104950;1272;68295;-69
2022/03/29 04:10:35;;;;;;;25.50;11.90;;;;;;;2.84;92.03;99085.23;105331;1271;73019;-69
2022/03/29 04:13:24;;;;;;;25.00;11.40;;;;;;;2.76;92.21;99085.18;104977;1271;59647;-69
2022/03/29 04:16:13;;;;;;;25.80;11.50;;;;;;;2.69;92.39;99084.91;105234;1271;59623;-69
2022/03/29 04:19:02;;;;;;;27.00;9.70;;;;;;;2.63;92.58;99090.55;104936;1272;73582;-70
2022/03/29 04:21:52;;;;;;;30.90;10.80;;;;;;;2.55;93.00;99092.36;105009;1272;66931;-69
2022/03/29 04:24:41;;;;;;;34.10;11.60;;;;;;;2.50;93.13;99096.39;105362;1271;72640;-68
2022/03/29 04:27:31;;;;;;;26.00;10.70;;;;;;;2.45;93.30;99096.48;104758;1271;59734;-69
2022/03/29 04:30:21;;;;;;;26.50;11.00;;;;;;;2.40;93.60;99093.14;105008;1271;59825;-68
2022/03/29 04:33:10;;;;;;;29.00;11.10;;;;;;;2.35;94.10;99094.27;104884;1271;73178;-69
2022/03/29 04:35:58;;;;;;;27.70;11.00;;;;;;;2.31;93.99;99094.36;104843;1271;68168;-69
2022/03/29 04:38:47;;;;;;;26.90;11.00;;;;;;;2.27;94.19;99095.81;104988;1271;73547;-68
2022/03/29 04:41:35;;;;;;;25.60;11.30;;;;;;;2.23;94.31;99094.83;104949;1271;59829;-69
2022/03/29 04:44:44;;;;;;;28.40;11.60;;;;;;;2.18;94.91;99097.05;105208;1271;59577;-68
2022/03/29 04:47:32;;;;;;;27.10;11.40;;;;;;;2.14;94.96;99097.95;104947;1271;72251;-69
2022/03/29 04:50:20;;;;;;;32.60;11.20;;;;;;;2.12;95.27;99101.95;104941;1271;66964;-68
2022/03/29 04:53:09;;;;;;;28.70;11.10;;;;;;;2.11;95.41;99100.46;104927;1271;73344;-69
2022/03/29 04:55:58;;;;;;;30.60;11.10;;;;;;;2.09;95.63;99101.23;104905;1271;59740;-68
2022/03/29 04:58:46;;;;;;;30.90;11.50;;;;;;;2.10;95.74;99104.86;105156;1271;60395;-69
2022/03/29 05:01:36;;;;;;;25.10;10.00;;;;;;;2.12;95.90;99102.99;105252;1271;73953;-69
2022/03/29 05:04:25;;;;;;;28.70;10.20;;;;;;;2.13;96.23;99103.77;105126;1271;68300;-69
2022/03/29 05:07:13;;;;;;;36.40;11.00;;;;;;;2.17;96.39;99111.27;105110;1271;71573;-68
2022/03/29 05:10:08;;;;;;;22.50;9.40;;;;;;;2.20;96.34;99113.91;105121;1271;59643;-70
2022/03/29 05:12:56;;;;;;;29.20;11.00;;;;;;;2.24;96.38;99111.41;104960;1271;60753;-67
2022/03/29 05:15:45;;;;;;;29.20;10.00;;;;;;;2.28;96.06;99110.45;104801;1271;73677;-69
2022/03/29 05:18:33;;;;;;;28.00;9.80;;;;;;;2.32;95.76;99106.37;104950;1271;68465;-69
2022/03/29 05:21:21;;;;;;;27.40;10.70;;;;;;;2.37;95.54;99112.75;104836;1271;72980;-69
2022/03/29 05:24:11;;;;;;;27.90;10.90;;;;;;;2.41;95.41;99116.38;104861;1271;59861;-69
2022/03/29 05:27:00;;;;;;;27.70;11.10;;;;;;;2.47;94.92;99116.35;104874;1271;61122;-69
2022/03/29 05:29:49;;;;;;;25.60;10.20;;;;;;;2.53;94.54;99113.89;105116;1271;72554;-68
2022/03/29 05:32:39;;;;;;;28.10;9.50;;;;;;;2.62;94.08;99118.06;104962;1271;66414;-68
2022/03/29 05:35:30;;;;;;;22.60;9.90;;;;;;;2.72;93.89;99122.25;104982;1271;73647;-68
2022/03/29 05:38:19;;;;;;;22.50;10.00;;;;;;;2.83;93.43;99123.48;104983;1271;59753;-67
2022/03/29 05:41:12;;;;;;;21.50;8.10;;;;;;;2.93;92.98;99124.63;105398;1271;60326;-69
2022/03/29 05:44:05;;;;;;;25.70;9.30;;;;;;;3.03;92.11;99120.89;104982;1271;73896;-69
2022/03/29 05:50:02;;;;;;;24.90;9.00;;;;;;;3.16;90.24;99120.58;104974;1271;71515;-68
2022/03/29 05:52:51;;;;;;;23.90;8.70;;;;;;;3.24;90.08;99119.21;105177;1271;59653;-68
2022/03/29 05:55:40;;;;;;;24.10;9.90;;;;;;;3.35;89.51;99123.63;104822;1271;60791;-69
2022/03/29 05:58:30;;;;;;;21.60;8.30;;;;;;;3.51;88.67;99128.09;105150;1271;72108;-69
2022/03/29 06:01:20;;;;;;;18.70;7.70;;;;;;;3.64;87.75;99124.95;105072;1271;68336;-68
2022/03/29 06:04:09;;;;;;;19.00;7.50;;;;;;;3.80;86.80;99123.60;105095;1271;72881;-68
2022/03/29 06:06:58;;;;;;;21.10;8.40;;;;;;;3.93;85.86;99129.58;104855;1271;59839;-68
2022/03/29 06:09:46;;;;;;;20.00;7.30;;;;;;;4.02;84.73;99128.30;105146;1271;60330;-69
2022/03/29 06:12:36;;;;;;;18.70;7.60;;;;;;;4.14;83.58;99128.26;105344;1271;72085;-68
2022/03/29 06:15:25;;;;;;;20.80;7.00;;;;;;;4.26;82.16;99130.22;104837;1271;68110;-68
2022/03/29 06:18:13;;;;;;;16.90;6.50;;;;;;;4.39;80.78;99128.16;105100;1271;70940;-68
2022/03/29 06:21:07;;;;;;;19.10;7.40;;;;;;;4.54;79.85;99129.98;104200;1271;1003661;-68
2022/03/29 06:23:57;;;;;;;26.70;7.90;;;;;;;4.72;79.08;99132.65;105518;1271;60539;-68
2022/03/29 06:26:46;;;;;;;21.20;5.90;;;;;;;4.96;78.62;99132.36;104873;1271;72267;-67
2022/03/29 06:29:35;;;;;;;18.50;6.20;;;;;;;5.22;76.62;99130.77;104904;1271;68436;-69
2022/03/29 06:32:26;;;;;;;17.20;5.50;;;;;;;5.55;75.45;99133.53;104897;1271;71566;-68
2022/03/29 06:35:23;;;;;;;16.40;6.30;;;;;;;6.06;71.23;99135.33;104923;1271;59637;-69
2022/03/29 06:38:12;;;;;;;14.90;4.60;;;;;;;6.73;68.37;99133.71;105018;1271;60713;-69
2022/03/29 06:41:00;;;;;;;14.90;4.60;;;;;;;7.32;63.06;99127.75;105413;1271;71406;-68
2022/03/29 06:43:52;;;;;;;13.10;4.10;;;;;;;7.80;61.11;99131.31;105207;1271;68150;-69
2022/03/29 06:46:44;;;;;;;13.00;4.00;;;;;;;8.20;58.63;99133.58;105052;1271;73112;-70
2022/03/29 06:49:33;;;;;;;16.00;4.50;;;;;;;8.58;56.72;99132.39;105285;1271;59679;-70
2022/03/29 06:52:26;;;;;;;12.20;4.30;;;;;;;9.21;53.13;99136.40;104974;1272;61046;-69
2022/03/29 06:55:18;;;;;;;12.20;3.70;;;;;;;9.87;51.71;99136.83;105135;1271;73037;-69
2022/03/29 06:58:08;;;;;;;12.70;4.00;;;;;;;10.38;48.61;99141.69;104986;1272;68700;-69
2022/03/29 07:00:58;;;;;;;12.80;3.90;;;;;;;10.91;48.27;99141.55;105160;1271;73126;-70
2022/03/29 07:03:47;;;;;;;12.90;3.40;;;;;;;11.48;46.09;99138.34;105091;1271;59662;-69
2022/03/29 07:06:47;;;;;;;11.70;3.40;;;;;;;12.22;44.17;99137.35;105127;1271;60558;-70
2022/03/29 07:13:03;;;;;;;9.80;2.70;;;;;;;13.45;40.04;99132.95;105415;1271;66873;-71
2022/03/29 07:15:54;;;;;;;9.40;2.80;;;;;;;15.09;36.51;99130.39;105004;1271;72803;-70
2022/03/29 07:18:43;;;;;;;7.80;2.50;;;;;;;16.33;34.00;99120.64;105153;1271;59737;-71
2022/03/29 07:21:42;;;;;;;8.90;2.80;;;;;;;16.99;31.88;99122.77;105056;1273;59841;-70
2022/03/29 07:24:33;;;;;;;8.20;1.50;;;;;;;17.28;28.97;99127.35;105129;1271;73572;-70
2022/03/29 07:27:26;;;;;;;7.20;1.50;;;;;;;17.22;28.24;99125.98;105219;1271;68533;-70
2022/03/29 07:30:18;;;;;;;7.40;1.60;;;;;;;17.42;28.09;99127.14;104981;1271;71790;-69
2022/03/29 07:33:10;;;;;;;7.00;1.50;;;;;;;17.76;27.21;99117.75;105130;1271;59809;-70
2022/03/29 07:40:09;;;;;;;6.60;1.60;;;;;;;16.70;27.12;99119.93;105495;1271;73762;-70
2022/03/29 07:42:58;;;;;;;7.90;2.10;;;;;;;16.35;27.36;99119.02;105514;1271;66755;-72
2022/03/29 07:45:50;;;;;;;6.00;1.40;;;;;;;15.77;26.75;99123.09;105066;1271;71915;-69
2022/03/29 07:49:03;;;;;;;6.90;1.90;;;;;;;14.96;26.43;99124.51;105221;1271;59642;-70
2022/03/29 07:52:14;;;;;;;7.90;1.80;;;;;;;14.20;28.03;99124.81;105108;1271;60563;-70
2022/03/29 07:55:06;;;;;;;7.70;1.50;;;;;;;13.70;29.66;99124.45;105295;1271;73365;-70
2022/03/29 07:58:16;;;;;;;8.40;1.70;;;;;;;13.51;30.53;99128.30;105238;1271;67080;-70
2022/03/29 08:01:07;;;;;;;7.00;1.60;;;;;;;13.45;30.66;99127.61;105026;1271;72267;-69
2022/03/29 08:03:56;;;;;;;7.90;1.90;;;;;;;13.44;30.17;99127.86;105094;1271;59767;-69
2022/03/29 08:06:46;;;;;;;6.60;1.60;;;;;;;13.22;30.53;99128.67;105114;1271;59530;-70
2022/03/29 08:09:34;;;;;;;11.30;1.60;;;;;;;13.08;30.10;99129.23;104931;1271;73556;-69
2022/03/29 08:12:28;;;;;;;7.60;1.80;;;;;;;12.69;30.56;99130.00;104979;1271;68485;-69
2022/03/29 08:15:39;;;;;;;9.10;2.20;;;;;;;13.02;31.46;99127.22;105038;1271;72375;-70
2022/03/29 08:18:31;;;;;;;6.70;1.80;;;;;;;13.42;30.67;99122.38;105199;1271;59689;-69
2022/03/29 08:24:34;;;;;;;9.20;2.40;;;;;;;13.49;30.64;99128.96;104989;1271;72030;-70
2022/03/29 08:27:24;;;;;;;7.30;2.00;;;;;;;13.33;30.70;99128.80;105048;1271;68525;-70
2022/03/29 08:30:16;;;;;;;10.10;2.20;;;;;;;13.30;30.11;99124.91;105083;1271;71727;-70
2022/03/29 08:33:05;;;;;;;7.40;2.10;;;;;;;13.58;30.04;99123.77;105079;1273;59682;-72
2022/03/29 08:36:01;;;;;;;10.20;1.90;;;;;;;14.37;27.68;99123.52;105050;1271;60472;-70
2022/03/29 08:38:50;;;;;;;7.70;2.00;;;;;;;14.98;26.74;99121.30;105140;1271;72622;-70
2022/03/29 08:41:46;;;;;;;10.50;4.00;;;;;;;15.34;26.73;99124.59;105042;1271;66991;-70
2022/03/29 08:44:39;;;;;;;8.60;2.10;;;;;;;15.21;25.94;99120.33;105450;1271;71623;-70
2022/03/29 08:47:31;;;;;;;8.70;2.40;;;;;;;15.42;26.14;99122.41;104990;1271;59774;-70
2022/03/29 08:50:22;;;;;;;11.00;3.20;;;;;;;15.50;26.20;99115.44;105139;1271;59609;-70
2022/03/29 08:53:14;;;;;;;9.30;2.40;;;;;;;15.63;26.14;99118.63;104979;1271;71779;-70
2022/03/29 08:56:04;;;;;;;7.20;2.10;;;;;;;15.34;25.94;99117.73;104994;1271;66988;-71
2022/03/29 08:58:57;;;;;;;12.00;3.90;;;;;;;14.90;26.15;99118.17;105292;1271;73348;-70
2022/03/29 09:02:49;;;;;;;8.30;2.50;;;;;;;15.38;26.84;99123.80;105293;1271;59669;-70
2022/03/29 09:06:26;;;;;;;11.40;2.60;;;;;;;15.45;25.98;99118.52;98268;1271;61437;-71
2022/03/29 09:10:21;;;;;;;8.70;2.30;;;;;;;15.95;25.08;99117.24;104120;1282;74290;-70
2022/03/29 09:14:02;;;;;;;21.80;11.60;;;;;;;15.82;24.49;99113.98;104253;1284;59752;-70
2022/03/29 09:16:54;;;;;;;9.40;2.50;;;;;;;15.59;24.73;99115.13;103973;1287;59723;-71
2022/03/29 09:20:15;;;;;;;7.30;2.30;;;;;;;15.07;25.00;99119.74;103712;1288;73942;-70
2022/03/29 09:23:18;;;;;;;9.20;3.60;;;;;;;14.76;25.44;99115.61;103989;1287;68780;-71
2022/03/29 09:26:28;;;;;;;9.70;2.50;;;;;;;14.57;25.77;99112.63;103680;1287;71977;-70
2022/03/29 09:29:23;;;;;;;10.10;2.80;;;;;;;14.54;25.97;99112.52;103795;1287;59823;-71
2022/03/29 09:32:22;;;;;;;9.40;2.60;;;;;;;14.87;25.93;99109.93;103864;1286;59971;-70
2022/03/29 09:35:14;;;;;;;9.30;2.70;;;;;;;15.12;26.24;99112.70;103526;1288;72500;-70
2022/03/29 09:38:27;;;;;;;11.60;2.40;;;;;;;15.14;26.10;99111.95;103412;1288;68215;-70
2022/03/29 09:42:27;;;;;;;9.20;2.70;;;;;;;14.89;25.41;99111.20;103865;1287;73389;-70
2022/03/29 09:45:16;;;;;;;6.70;1.80;;;;;;;14.82;25.60;99107.23;104272;1278;59791;-69
2022/03/29 09:48:39;;;;;;;8.50;2.20;;;;;;;15.14;25.16;99107.63;104662;1277;60702;-70
2022/03/29 09:51:31;;;;;;;7.30;2.10;;;;;;;15.22;24.25;99102.64;104379;1282;72821;-70
2022/03/29 09:54:20;;;;;;;7.00;1.80;;;;;;;15.08;23.95;99106.16;104421;1276;68190;-69
2022/03/29 09:57:10;;;;;;;8.10;2.00;;;;;;;15.06;24.45;99101.98;104984;1276;73803;-69
2022/03/29 10:00:04;;;;;;;8.70;2.00;;;;;;;15.20;23.28;99101.77;104712;1276;59890;-69
2022/03/29 10:03:07;;;;;;;7.30;1.60;;;;;;;15.31;23.51;99097.26;105077;1276;59781;-70
2022/03/29 10:06:01;;;;;;;8.50;1.90;;;;;;;15.52;23.45;99093.23;104608;1276;73444;-70
2022/03/29 10:12:06;;;;;;;7.30;1.60;;;;;;;15.46;23.95;99091.52;104976;1276;72749;-69
2022/03/29 10:14:59;;;;;;;9.30;1.90;;;;;;;15.24;24.24;99094.10;104695;1276;59756;-69
2022/03/29 10:17:48;;;;;;;8.60;2.00;;;;;;;15.09;24.78;99099.60;104765;1276;60794;-69
2022/03/29 10:20:39;;;;;;;7.10;2.20;;;;;;;15.03;25.63;99095.86;104637;1276;71231;-69
2022/03/29 10:23:31;;;;;;;6.60;1.80;;;;;;;14.79;25.05;99099.00;104732;1276;67066;-69
2022/03/29 10:27:23;;;;;;;9.40;2.30;;;;;;;14.59;25.37;99098.13;104705;1276;72040;-69
2022/03/29 10:30:36;;;;;;;7.40;1.90;;;;;;;14.33;25.56;99093.36;105426;1271;59873;-68
2022/03/29 10:33:33;;;;;;;8.00;2.00;;;;;;;13.99;26.28;99090.89;105384;1271;60205;-69
2022/03/29 10:36:22;;;;;;;8.70;1.80;;;;;;;14.04;26.90;99096.47;105127;1271;72304;-70
2022/03/29 10:39:20;;;;;;;7.40;1.90;;;;;;;13.97;26.67;99092.00;105161;1271;68415;-69
2022/03/29 10:42:41;;;;;;;7.10;2.20;;;;;;;13.71;26.84;99090.84;105208;1271;73235;-68
2022/03/29 10:45:29;;;;;;;7.80;2.20;;;;;;;13.57;27.42;99092.13;105179;1271;59796;-69
2022/03/29 10:48:18;;;;;;;7.00;2.10;;;;;;;13.96;27.28;99092.66;105056;1271;60699;-69
2022/03/29 10:51:07;;;;;;;7.40;2.00;;;;;;;14.18;26.86;99088.20;105216;1271;73552;-70
2022/03/29 10:54:36;;;;;;;7.10;1.60;;;;;;;14.16;26.57;99087.83;105352;1271;68470;-70
2022/03/29 10:57:28;;;;;;;7.30;1.80;;;;;;;13.77;28.45;99082.55;105139;1271;71652;-69
2022/03/29 11:00:22;;;;;;;8.80;1.80;;;;;;;13.47;29.19;99079.84;104993;1271;59869;-69
2022/03/29 11:03:21;;;;;;;8.00;1.80;;;;;;;13.38;29.91;99077.08;105216;1271;59677;-70
2022/03/29 11:06:12;;;;;;;8.20;1.90;;;;;;;13.62;29.99;99072.55;105031;1270;73163;-70
2022/03/29 11:09:16;;;;;;;8.00;1.90;;;;;;;14.09;29.46;99074.31;105511;1271;65944;-68
2022/03/29 11:12:48;;;;;;;8.10;1.30;;;;;;;14.45;28.58;99069.73;105401;1271;73578;-69
2022/03/29 11:15:38;;;;;;;9.20;1.80;;;;;;;14.70;27.95;99068.75;105194;1271;59564;-69
2022/03/29 11:18:38;;;;;;;8.90;1.90;;;;;;;14.64;27.59;99066.89;105042;1271;60660;-69
2022/03/29 11:21:34;;;;;;;13.30;1.90;;;;;;;14.35;27.22;99061.50;105383;1271;72277;-69
2022/03/29 11:24:23;;;;;;;15.50;1.80;;;;;;;13.94;27.37;99062.02;105101;1271;68448;-69
2022/03/29 11:27:24;;;;;;;17.00;1.70;;;;;;;13.34;28.40;99056.98;105158;1271;73237;-69
2022/03/29 11:30:13;;;;;;;9.00;1.90;;;;;;;12.79;29.39;99062.66;105254;1271;59570;-69
2022/03/29 11:33:04;;;;;;;8.90;1.60;;;;;;;12.53;30.44;99058.17;104911;1272;59755;-69
2022/03/29 11:35:54;;;;;;;10.00;1.60;;;;;;;12.33;30.68;99056.13;105164;1270;73354;-70
2022/03/29 11:38:46;;;;;;;7.60;1.50;;;;;;;12.30;31.18;99052.48;105492;1271;68245;-69
2022/03/29 11:41:38;;;;;;;6.30;1.50;;;;;;;12.33;31.14;99054.31;105382;1271;72472;-69
2022/03/29 11:44:29;;;;;;;10.00;1.50;;;;;;;12.40;31.40;99051.11;105039;1271;59721;-69
2022/03/29 11:47:19;;;;;;;8.10;1.70;;;;;;;12.50;31.52;99046.88;105401;1271;59653;-69
2022/03/29 11:50:13;;;;;;;9.30;1.40;;;;;;;12.61;30.87;99044.17;105104;1271;73328;-69
2022/03/29 11:53:14;;;;;;;10.30;2.00;;;;;;;12.66;30.76;99040.98;105073;1271;68359;-69
2022/03/29 11:56:13;;;;;;;10.20;1.90;;;;;;;12.72;31.18;99038.61;105033;1271;71953;-68
2022/03/29 11:59:02;;;;;;;7.80;1.80;;;;;;;12.66;31.19;99037.58;105014;1271;59763;-70
2022/03/29 12:01:50;;;;;;;9.20;2.10;;;;;;;12.76;31.07;99037.85;104957;1271;59685;-69
2022/03/29 12:04:39;;;;;;;7.10;1.80;;;;;;;12.78;30.89;99034.40;104974;1271;72461;-69
2022/03/29 12:07:42;;;;;;;9.20;1.80;;;;;;;12.86;31.14;99035.23;105358;1271;67346;-69
2022/03/29 12:10:35;;;;;;;10.20;1.60;;;;;;;12.77;31.09;99035.60;105124;1271;72721;-69
2022/03/29 12:13:23;;;;;;;8.20;1.60;;;;;;;12.32;31.57;99035.52;105119;1271;59702;-69
2022/03/29 12:16:19;;;;;;;10.10;1.50;;;;;;;12.03;32.67;99033.98;104868;1271;60535;-68
2022/03/29 12:19:12;;;;;;;11.10;1.50;;;;;;;11.87;33.08;99031.63;105018;1271;73454;-68
2022/03/29 12:22:04;;;;;;;8.00;1.50;;;;;;;11.65;33.48;99032.98;104988;1271;66051;-69
2022/03/29 12:24:55;;;;;;;8.10;1.70;;;;;;;11.35;34.49;99031.77;105024;1271;73193;-69
2022/03/29 12:27:43;;;;;;;8.70;1.60;;;;;;;10.99;35.72;99031.98;105102;1271;59890;-69
2022/03/29 12:30:32;;;;;;;7.40;1.70;;;;;;;10.64;36.23;99031.77;104850;1272;59764;-68
2022/03/29 12:33:23;;;;;;;8.00;1.60;;;;;;;10.35;37.86;99035.20;105025;1271;73329;-68
2022/03/29 12:36:16;;;;;;;7.00;1.50;;;;;;;10.05;38.21;99030.86;104839;1271;68831;-69
2022/03/29 12:39:07;;;;;;;8.50;1.50;;;;;;;9.78;39.36;99025.13;105081;1271;73197;-68
2022/03/29 12:41:56;;;;;;;10.70;2.30;;;;;;;9.58;40.09;99023.58;104926;1271;59616;-68
2022/03/29 12:44:54;;;;;;;10.20;2.20;;;;;;;9.40;40.73;99024.12;105053;1271;60661;-68
2022/03/29 12:47:43;;;;;;;6.90;1.70;;;;;;;9.23;42.23;99018.69;105122;1271;72399;-69
2022/03/29 12:50:32;;;;;;;10.30;2.00;;;;;;;9.12;42.73;99014.02;105093;1271;68138;-69
2022/03/29 12:53:20;;;;;;;8.30;1.80;;;;;;;9.09;43.43;99014.13;104974;1271;73153;-68
2022/03/29 12:56:10;;;;;;;7.80;1.60;;;;;;;9.01;44.08;99014.97;105103;1271;59647;-68
2022/03/29 12:59:00;;;;;;;9.30;1.70;;;;;;;8.99;44.35;99006.98;104579;1274;60906;-68
2022/03/29 13:01:49;;;;;;;8.90;1.90;;;;;;;8.99;44.51;99007.67;105008;1274;73243;-68
2022/03/29 13:04:52;;;;;;;7.30;1.60;;;;;;;8.91;44.55;99006.33;105053;1276;67417;-68
2022/03/29 13:07:49;;;;;;;11.40;1.50;;;;;;;8.79;44.72;99007.17;104722;1274;73055;-69
2022/03/29 13:10:42;;;;;;;8.70;1.50;;;;;;;8.70;44.93;99004.59;104794;1274;59864;-68
2022/03/29 13:13:36;;;;;;;7.20;1.60;;;;;;;8.57;45.47;98996.11;104834;1276;60338;-68
2022/03/29 13:16:24;;;;;;;9.50;1.60;;;;;;;8.41;46.06;98989.48;104761;1274;73370;-68
2022/03/29 13:19:14;;;;;;;7.30;1.70;;;;;;;8.24;46.53;98992.20;105064;1274;67351;-70
2022/03/29 13:22:06;;;;;;;10.20;1.80;;;;;;;8.10;47.28;98996.36;104629;1276;72853;-69
2022/03/29 13:24:56;;;;;;;7.90;1.70;;;;;;;8.05;47.66;98996.48;105126;1274;59865;-69
2022/03/29 13:27:45;;;;;;;9.10;1.80;;;;;;;7.92;48.23;98999.32;104685;1276;60607;-69
2022/03/29 13:30:34;;;;;;;10.50;3.40;;;;;;;7.78;49.42;98996.38;104908;1271;71859;-69
2022/03/29 13:33:23;;;;;;;12.10;2.70;;;;;;;7.67;49.35;98994.34;104876;1271;68372;-68
2022/03/29 13:36:17;;;;;;;10.40;1.90;;;;;;;7.56;49.85;98998.76;105159;1271;73409;-69
2022/03/29 13:39:10;;;;;;;11.80;2.70;;;;;;;7.40;50.64;99000.73;105296;1271;59804;-68
2022/03/29 13:42:19;;;;;;;12.70;2.30;;;;;;;7.26;50.84;98995.31;105084;1271;60612;-68
2022/03/29 13:45:11;;;;;;;15.50;2.90;;;;;;;7.15;51.71;98993.54;104967;1271;73213;-68